sensor_id;sensor_type;location;lat;lon;timestamp;P1;durP1;ratioP1;P2;durP2;ratioP2
5722;SDS011;2886;49.722;8.612;2023-06-24T00:01:09;3.73;;;2.90;;
5722;SDS011;2886;49.722;8.612;2023-06-24T00:03:38;7.03;;;3.90;;
5722;SDS011;2886;49.722;8.612;2023-06-24T00:06:04;4.57;;;3.10;;
5722;SDS011;2886;49.722;8.612;2023-06-24T00:08:30;5.07;;;3.37;;
5722;SDS011;2886;49.722;8.612;2023-06-24T00:11:02;5.00;;;3.60;;
5722;SDS011;2886;49.722;8.612;2023-06-24T00:13:36;5.87;;;3.77;;
5722;SDS011;2886;49.722;8.612;2023-06-24T00:16:14;4.73;;;3.30;;
5722;SDS011;2886;49.722;8.612;2023-06-24T00:18:40;9.07;;;3.40;;
5722;SDS011;2886;49.722;8.612;2023-06-24T00:21:06;5.50;;;3.30;;
5722;SDS011;2886;49.722;8.612;2023-06-24T00:23:32;5.10;;;3.53;;
5722;SDS011;2886;49.722;8.612;2023-06-24T00:26:01;5.40;;;3.70;;
5722;SDS011;2886;49.722;8.612;2023-06-24T00:28:27;4.80;;;3.57;;
5722;SDS011;2886;49.722;8.612;2023-06-24T00:30:53;9.33;;;4.40;;
5722;SDS011;2886;49.722;8.612;2023-06-24T00:33:19;5.63;;;3.87;;
5722;SDS011;2886;49.722;8.612;2023-06-24T00:35:45;5.20;;;3.87;;
5722;SDS011;2886;49.722;8.612;2023-06-24T00:38:11;5.13;;;3.70;;
5722;SDS011;2886;49.722;8.612;2023-06-24T00:40:37;13.63;;;4.13;;
5722;SDS011;2886;49.722;8.612;2023-06-24T00:43:04;7.03;;;4.30;;
5722;SDS011;2886;49.722;8.612;2023-06-24T00:45:30;4.80;;;3.30;;
5722;SDS011;2886;49.722;8.612;2023-06-24T00:47:57;5.03;;;3.70;;
5722;SDS011;2886;49.722;8.612;2023-06-24T00:50:26;4.20;;;3.33;;
5722;SDS011;2886;49.722;8.612;2023-06-24T00:52:51;4.27;;;3.50;;
5722;SDS011;2886;49.722;8.612;2023-06-24T00:55:17;5.20;;;3.83;;
5722;SDS011;2886;49.722;8.612;2023-06-24T00:57:45;4.30;;;3.13;;
5722;SDS011;2886;49.722;8.612;2023-06-24T01:00:15;6.37;;;3.93;;
5722;SDS011;2886;49.722;8.612;2023-06-24T01:02:44;5.77;;;3.90;;
5722;SDS011;2886;49.722;8.612;2023-06-24T01:05:10;5.87;;;4.10;;
5722;SDS011;2886;49.722;8.612;2023-06-24T01:10:07;6.57;;;4.20;;
5722;SDS011;2886;49.722;8.612;2023-06-24T01:12:38;10.27;;;4.10;;
5722;SDS011;2886;49.722;8.612;2023-06-24T01:15:05;4.33;;;3.60;;
5722;SDS011;2886;49.722;8.612;2023-06-24T01:17:36;6.27;;;3.90;;
5722;SDS011;2886;49.722;8.612;2023-06-24T01:20:19;4.73;;;3.40;;
5722;SDS011;2886;49.722;8.612;2023-06-24T01:23:24;4.20;;;3.53;;
5722;SDS011;2886;49.722;8.612;2023-06-24T01:29:01;6.23;;;3.67;;
5722;SDS011;2886;49.722;8.612;2023-06-24T01:39:38;4.97;;;3.63;;
5722;SDS011;2886;49.722;8.612;2023-06-24T01:42:12;5.50;;;4.00;;
5722;SDS011;2886;49.722;8.612;2023-06-24T01:44:40;6.10;;;4.20;;
5722;SDS011;2886;49.722;8.612;2023-06-24T01:47:10;4.87;;;3.90;;
5722;SDS011;2886;49.722;8.612;2023-06-24T01:49:38;7.00;;;3.87;;
5722;SDS011;2886;49.722;8.612;2023-06-24T01:52:06;7.90;;;4.23;;
5722;SDS011;2886;49.722;8.612;2023-06-24T01:54:36;6.07;;;4.80;;
5722;SDS011;2886;49.722;8.612;2023-06-24T01:57:06;7.40;;;4.47;;
5722;SDS011;2886;49.722;8.612;2023-06-24T01:59:34;6.23;;;4.23;;
5722;SDS011;2886;49.722;8.612;2023-06-24T02:02:01;11.47;;;3.80;;
5722;SDS011;2886;49.722;8.612;2023-06-24T02:04:28;6.10;;;4.20;;
5722;SDS011;2886;49.722;8.612;2023-06-24T02:06:57;6.40;;;4.40;;
5722;SDS011;2886;49.722;8.612;2023-06-24T02:09:26;6.37;;;4.27;;
5722;SDS011;2886;49.722;8.612;2023-06-24T02:11:53;5.37;;;4.20;;
5722;SDS011;2886;49.722;8.612;2023-06-24T02:14:21;5.83;;;4.20;;
5722;SDS011;2886;49.722;8.612;2023-06-24T02:16:47;6.30;;;3.83;;
5722;SDS011;2886;49.722;8.612;2023-06-24T02:19:16;9.30;;;4.43;;
5722;SDS011;2886;49.722;8.612;2023-06-24T02:21:43;6.17;;;4.27;;
5722;SDS011;2886;49.722;8.612;2023-06-24T02:24:10;6.37;;;4.40;;
5722;SDS011;2886;49.722;8.612;2023-06-24T02:26:37;7.50;;;4.50;;
5722;SDS011;2886;49.722;8.612;2023-06-24T02:29:06;7.93;;;5.00;;
5722;SDS011;2886;49.722;8.612;2023-06-24T02:31:34;7.90;;;4.40;;
5722;SDS011;2886;49.722;8.612;2023-06-24T02:34:00;6.73;;;5.00;;
5722;SDS011;2886;49.722;8.612;2023-06-24T02:36:26;4.83;;;3.93;;
5722;SDS011;2886;49.722;8.612;2023-06-24T02:38:51;12.73;;;4.37;;
5722;SDS011;2886;49.722;8.612;2023-06-24T02:41:17;5.20;;;4.07;;
5722;SDS011;2886;49.722;8.612;2023-06-24T02:43:43;6.97;;;4.53;;
5722;SDS011;2886;49.722;8.612;2023-06-24T02:46:08;5.60;;;4.13;;
5722;SDS011;2886;49.722;8.612;2023-06-24T02:48:36;5.33;;;4.23;;
5722;SDS011;2886;49.722;8.612;2023-06-24T02:51:03;6.27;;;3.77;;
5722;SDS011;2886;49.722;8.612;2023-06-24T02:53:31;5.07;;;4.33;;
5722;SDS011;2886;49.722;8.612;2023-06-24T02:55:57;5.83;;;4.47;;
5722;SDS011;2886;49.722;8.612;2023-06-24T02:58:24;9.07;;;4.10;;
5722;SDS011;2886;49.722;8.612;2023-06-24T03:00:56;5.50;;;3.70;;
5722;SDS011;2886;49.722;8.612;2023-06-24T03:03:27;9.00;;;4.80;;
5722;SDS011;2886;49.722;8.612;2023-06-24T03:05:53;12.20;;;5.20;;
5722;SDS011;2886;49.722;8.612;2023-06-24T03:08:22;7.83;;;5.20;;
5722;SDS011;2886;49.722;8.612;2023-06-24T03:10:49;5.83;;;4.13;;
5722;SDS011;2886;49.722;8.612;2023-06-24T03:13:16;4.90;;;4.13;;
5722;SDS011;2886;49.722;8.612;2023-06-24T03:15:41;10.03;;;4.80;;
5722;SDS011;2886;49.722;8.612;2023-06-24T03:18:07;7.27;;;3.90;;
5722;SDS011;2886;49.722;8.612;2023-06-24T03:20:32;5.80;;;3.60;;
5722;SDS011;2886;49.722;8.612;2023-06-24T03:23:07;7.07;;;4.13;;
5722;SDS011;2886;49.722;8.612;2023-06-24T03:25:33;5.90;;;4.70;;
5722;SDS011;2886;49.722;8.612;2023-06-24T03:27:59;7.83;;;5.00;;
5722;SDS011;2886;49.722;8.612;2023-06-24T03:30:26;5.67;;;4.30;;
5722;SDS011;2886;49.722;8.612;2023-06-24T03:32:52;6.70;;;4.70;;
5722;SDS011;2886;49.722;8.612;2023-06-24T03:35:17;9.83;;;4.67;;
5722;SDS011;2886;49.722;8.612;2023-06-24T03:37:43;5.17;;;4.40;;
5722;SDS011;2886;49.722;8.612;2023-06-24T03:40:09;8.00;;;5.33;;
5722;SDS011;2886;49.722;8.612;2023-06-24T03:42:35;7.83;;;4.40;;
5722;SDS011;2886;49.722;8.612;2023-06-24T03:45:01;5.73;;;4.67;;
5722;SDS011;2886;49.722;8.612;2023-06-24T03:47:28;5.50;;;4.07;;
5722;SDS011;2886;49.722;8.612;2023-06-24T03:49:54;4.77;;;4.00;;
5722;SDS011;2886;49.722;8.612;2023-06-24T03:52:19;10.77;;;5.00;;
5722;SDS011;2886;49.722;8.612;2023-06-24T03:54:45;5.30;;;4.50;;
5722;SDS011;2886;49.722;8.612;2023-06-24T03:57:11;8.70;;;5.23;;
5722;SDS011;2886;49.722;8.612;2023-06-24T03:59:37;5.30;;;4.37;;
5722;SDS011;2886;49.722;8.612;2023-06-24T04:02:03;6.63;;;4.53;;
5722;SDS011;2886;49.722;8.612;2023-06-24T04:04:33;7.63;;;4.73;;
5722;SDS011;2886;49.722;8.612;2023-06-24T04:06:59;9.67;;;5.10;;
5722;SDS011;2886;49.722;8.612;2023-06-24T04:09:24;12.70;;;4.97;;
5722;SDS011;2886;49.722;8.612;2023-06-24T04:11:50;5.57;;;4.50;;
5722;SDS011;2886;49.722;8.612;2023-06-24T04:14:16;7.07;;;4.80;;
5722;SDS011;2886;49.722;8.612;2023-06-24T04:16:41;5.20;;;4.50;;
5722;SDS011;2886;49.722;8.612;2023-06-24T04:19:07;6.50;;;4.63;;
5722;SDS011;2886;49.722;8.612;2023-06-24T04:21:32;7.77;;;4.97;;
5722;SDS011;2886;49.722;8.612;2023-06-24T04:23:58;7.53;;;4.80;;
5722;SDS011;2886;49.722;8.612;2023-06-24T04:26:24;7.00;;;4.70;;
5722;SDS011;2886;49.722;8.612;2023-06-24T04:28:49;6.80;;;4.80;;
5722;SDS011;2886;49.722;8.612;2023-06-24T04:31:15;6.27;;;4.53;;
5722;SDS011;2886;49.722;8.612;2023-06-24T04:33:41;8.80;;;5.40;;
5722;SDS011;2886;49.722;8.612;2023-06-24T04:36:06;7.93;;;5.00;;
5722;SDS011;2886;49.722;8.612;2023-06-24T04:38:32;17.13;;;4.70;;
5722;SDS011;2886;49.722;8.612;2023-06-24T04:40:58;6.97;;;4.90;;
5722;SDS011;2886;49.722;8.612;2023-06-24T04:43:24;6.37;;;4.63;;
5722;SDS011;2886;49.722;8.612;2023-06-24T04:45:55;6.03;;;4.50;;
5722;SDS011;2886;49.722;8.612;2023-06-24T04:48:24;10.70;;;4.70;;
5722;SDS011;2886;49.722;8.612;2023-06-24T04:50:51;9.43;;;4.80;;
5722;SDS011;2886;49.722;8.612;2023-06-24T04:53:18;8.70;;;5.00;;
5722;SDS011;2886;49.722;8.612;2023-06-24T04:55:44;7.07;;;4.80;;
5722;SDS011;2886;49.722;8.612;2023-06-24T04:58:10;8.43;;;5.20;;
5722;SDS011;2886;49.722;8.612;2023-06-24T05:00:35;6.73;;;5.30;;
5722;SDS011;2886;49.722;8.612;2023-06-24T05:03:01;10.33;;;5.37;;
5722;SDS011;2886;49.722;8.612;2023-06-24T05:05:26;6.33;;;4.90;;
5722;SDS011;2886;49.722;8.612;2023-06-24T05:07:52;8.23;;;6.07;;
5722;SDS011;2886;49.722;8.612;2023-06-24T05:10:18;7.47;;;4.70;;
5722;SDS011;2886;49.722;8.612;2023-06-24T05:12:43;6.70;;;4.90;;
5722;SDS011;2886;49.722;8.612;2023-06-24T05:15:09;5.93;;;4.90;;
5722;SDS011;2886;49.722;8.612;2023-06-24T05:17:35;8.90;;;4.80;;
5722;SDS011;2886;49.722;8.612;2023-06-24T05:20:01;7.03;;;4.50;;
5722;SDS011;2886;49.722;8.612;2023-06-24T05:22:28;6.03;;;4.33;;
5722;SDS011;2886;49.722;8.612;2023-06-24T05:24:53;5.90;;;4.50;;
5722;SDS011;2886;49.722;8.612;2023-06-24T05:27:19;4.90;;;3.90;;
5722;SDS011;2886;49.722;8.612;2023-06-24T05:29:45;5.50;;;4.37;;
5722;SDS011;2886;49.722;8.612;2023-06-24T05:32:11;3.80;;;3.17;;
5722;SDS011;2886;49.722;8.612;2023-06-24T05:34:36;4.77;;;3.77;;
5722;SDS011;2886;49.722;8.612;2023-06-24T05:37:02;8.63;;;4.37;;
5722;SDS011;2886;49.722;8.612;2023-06-24T05:39:28;5.80;;;4.50;;
5722;SDS011;2886;49.722;8.612;2023-06-24T05:41:54;5.90;;;4.27;;
5722;SDS011;2886;49.722;8.612;2023-06-24T05:44:20;6.30;;;3.87;;
5722;SDS011;2886;49.722;8.612;2023-06-24T05:46:46;6.27;;;3.93;;
5722;SDS011;2886;49.722;8.612;2023-06-24T05:49:11;6.03;;;4.43;;
5722;SDS011;2886;49.722;8.612;2023-06-24T05:51:37;6.00;;;4.17;;
5722;SDS011;2886;49.722;8.612;2023-06-24T05:54:03;13.93;;;4.73;;
5722;SDS011;2886;49.722;8.612;2023-06-24T05:56:29;5.93;;;4.27;;
5722;SDS011;2886;49.722;8.612;2023-06-24T05:58:54;6.50;;;4.43;;
5722;SDS011;2886;49.722;8.612;2023-06-24T06:01:20;7.10;;;5.07;;
5722;SDS011;2886;49.722;8.612;2023-06-24T06:03:46;7.53;;;5.60;;
5722;SDS011;2886;49.722;8.612;2023-06-24T06:06:12;8.70;;;4.97;;
5722;SDS011;2886;49.722;8.612;2023-06-24T06:08:37;7.83;;;4.73;;
5722;SDS011;2886;49.722;8.612;2023-06-24T06:11:03;11.17;;;4.90;;
5722;SDS011;2886;49.722;8.612;2023-06-24T06:13:42;9.87;;;5.70;;
5722;SDS011;2886;49.722;8.612;2023-06-24T06:16:41;5.73;;;4.63;;
5722;SDS011;2886;49.722;8.612;2023-06-24T06:19:46;10.90;;;5.70;;
5722;SDS011;2886;49.722;8.612;2023-06-24T06:22:12;6.80;;;4.63;;
5722;SDS011;2886;49.722;8.612;2023-06-24T06:24:38;10.33;;;4.10;;
5722;SDS011;2886;49.722;8.612;2023-06-24T06:27:04;13.67;;;4.53;;
5722;SDS011;2886;49.722;8.612;2023-06-24T06:29:34;6.07;;;4.90;;
5722;SDS011;2886;49.722;8.612;2023-06-24T06:31:59;6.50;;;5.20;;
5722;SDS011;2886;49.722;8.612;2023-06-24T06:34:25;14.93;;;4.87;;
5722;SDS011;2886;49.722;8.612;2023-06-24T06:36:51;8.97;;;5.40;;
5722;SDS011;2886;49.722;8.612;2023-06-24T06:39:16;6.47;;;4.53;;
5722;SDS011;2886;49.722;8.612;2023-06-24T06:41:42;5.90;;;4.40;;
5722;SDS011;2886;49.722;8.612;2023-06-24T06:44:08;9.00;;;5.17;;
5722;SDS011;2886;49.722;8.612;2023-06-24T06:46:33;9.80;;;5.27;;
5722;SDS011;2886;49.722;8.612;2023-06-24T06:48:59;5.77;;;4.33;;
5722;SDS011;2886;49.722;8.612;2023-06-24T06:51:25;7.30;;;5.40;;
5722;SDS011;2886;49.722;8.612;2023-06-24T06:53:50;7.20;;;4.30;;
5722;SDS011;2886;49.722;8.612;2023-06-24T06:56:22;8.03;;;4.83;;
5722;SDS011;2886;49.722;8.612;2023-06-24T06:58:49;8.40;;;5.43;;
5722;SDS011;2886;49.722;8.612;2023-06-24T07:01:15;7.53;;;5.27;;
5722;SDS011;2886;49.722;8.612;2023-06-24T07:03:41;5.63;;;4.70;;
5722;SDS011;2886;49.722;8.612;2023-06-24T07:06:06;9.00;;;5.07;;
5722;SDS011;2886;49.722;8.612;2023-06-24T07:08:33;6.97;;;5.30;;
5722;SDS011;2886;49.722;8.612;2023-06-24T07:10:59;8.50;;;4.67;;
5722;SDS011;2886;49.722;8.612;2023-06-24T07:13:24;6.50;;;4.70;;
5722;SDS011;2886;49.722;8.612;2023-06-24T07:15:50;8.90;;;5.20;;
5722;SDS011;2886;49.722;8.612;2023-06-24T07:18:15;7.37;;;4.63;;
5722;SDS011;2886;49.722;8.612;2023-06-24T07:20:41;7.17;;;4.70;;
5722;SDS011;2886;49.722;8.612;2023-06-24T07:23:06;6.60;;;4.07;;
5722;SDS011;2886;49.722;8.612;2023-06-24T07:25:32;11.57;;;4.77;;
5722;SDS011;2886;49.722;8.612;2023-06-24T07:27:59;6.90;;;4.40;;
5722;SDS011;2886;49.722;8.612;2023-06-24T07:30:25;6.30;;;4.60;;
5722;SDS011;2886;49.722;8.612;2023-06-24T07:32:50;6.77;;;4.53;;
5722;SDS011;2886;49.722;8.612;2023-06-24T07:35:16;5.80;;;4.27;;
5722;SDS011;2886;49.722;8.612;2023-06-24T07:37:45;6.10;;;4.57;;
5722;SDS011;2886;49.722;8.612;2023-06-24T07:40:10;6.43;;;4.70;;
5722;SDS011;2886;49.722;8.612;2023-06-24T07:42:37;6.70;;;4.50;;
5722;SDS011;2886;49.722;8.612;2023-06-24T07:45:03;10.73;;;4.83;;
5722;SDS011;2886;49.722;8.612;2023-06-24T07:47:29;4.13;;;3.40;;
5722;SDS011;2886;49.722;8.612;2023-06-24T07:49:56;6.13;;;4.13;;
5722;SDS011;2886;49.722;8.612;2023-06-24T07:52:22;6.00;;;3.93;;
5722;SDS011;2886;49.722;8.612;2023-06-24T07:54:48;7.07;;;3.80;;
5722;SDS011;2886;49.722;8.612;2023-06-24T07:57:13;9.13;;;4.10;;
5722;SDS011;2886;49.722;8.612;2023-06-24T07:59:39;5.40;;;4.03;;
5722;SDS011;2886;49.722;8.612;2023-06-24T08:02:04;6.70;;;4.80;;
5722;SDS011;2886;49.722;8.612;2023-06-24T08:04:30;5.57;;;3.80;;
5722;SDS011;2886;49.722;8.612;2023-06-24T08:06:56;5.60;;;3.80;;
5722;SDS011;2886;49.722;8.612;2023-06-24T08:09:21;4.90;;;4.00;;
5722;SDS011;2886;49.722;8.612;2023-06-24T08:11:47;6.70;;;3.90;;
5722;SDS011;2886;49.722;8.612;2023-06-24T08:14:13;3.70;;;3.27;;
5722;SDS011;2886;49.722;8.612;2023-06-24T08:16:39;5.03;;;4.10;;
5722;SDS011;2886;49.722;8.612;2023-06-24T08:19:04;9.83;;;3.67;;
5722;SDS011;2886;49.722;8.612;2023-06-24T08:21:30;4.70;;;3.63;;
5722;SDS011;2886;49.722;8.612;2023-06-24T08:23:56;4.30;;;3.63;;
5722;SDS011;2886;49.722;8.612;2023-06-24T08:26:21;6.57;;;3.27;;
5722;SDS011;2886;49.722;8.612;2023-06-24T08:28:47;4.87;;;3.90;;
5722;SDS011;2886;49.722;8.612;2023-06-24T08:31:13;7.97;;;3.73;;
5722;SDS011;2886;49.722;8.612;2023-06-24T08:33:41;5.23;;;3.50;;
5722;SDS011;2886;49.722;8.612;2023-06-24T08:36:10;4.80;;;3.60;;
5722;SDS011;2886;49.722;8.612;2023-06-24T08:38:36;4.77;;;3.80;;
5722;SDS011;2886;49.722;8.612;2023-06-24T08:41:02;5.47;;;3.87;;
5722;SDS011;2886;49.722;8.612;2023-06-24T08:43:28;5.10;;;3.47;;
5722;SDS011;2886;49.722;8.612;2023-06-24T08:45:53;5.53;;;3.57;;
5722;SDS011;2886;49.722;8.612;2023-06-24T08:48:19;4.57;;;3.50;;
5722;SDS011;2886;49.722;8.612;2023-06-24T08:50:46;4.90;;;3.80;;
5722;SDS011;2886;49.722;8.612;2023-06-24T08:53:15;4.50;;;3.17;;
5722;SDS011;2886;49.722;8.612;2023-06-24T08:55:43;6.50;;;3.60;;
5722;SDS011;2886;49.722;8.612;2023-06-24T08:58:11;3.83;;;3.43;;
5722;SDS011;2886;49.722;8.612;2023-06-24T09:00:38;3.83;;;2.93;;
5722;SDS011;2886;49.722;8.612;2023-06-24T09:03:04;4.97;;;3.40;;
5722;SDS011;2886;49.722;8.612;2023-06-24T09:05:30;4.50;;;3.13;;
5722;SDS011;2886;49.722;8.612;2023-06-24T09:07:56;5.37;;;3.43;;
5722;SDS011;2886;49.722;8.612;2023-06-24T09:12:57;4.10;;;3.00;;
5722;SDS011;2886;49.722;8.612;2023-06-24T09:15:23;6.43;;;4.00;;
5722;SDS011;2886;49.722;8.612;2023-06-24T09:17:49;4.90;;;3.70;;
5722;SDS011;2886;49.722;8.612;2023-06-24T09:20:15;6.30;;;3.53;;
5722;SDS011;2886;49.722;8.612;2023-06-24T09:22:45;6.67;;;3.97;;
5722;SDS011;2886;49.722;8.612;2023-06-24T09:25:13;7.10;;;4.40;;
5722;SDS011;2886;49.722;8.612;2023-06-24T09:27:46;6.80;;;4.83;;
5722;SDS011;2886;49.722;8.612;2023-06-24T09:30:20;12.53;;;4.73;;
5722;SDS011;2886;49.722;8.612;2023-06-24T09:32:48;4.73;;;4.00;;
5722;SDS011;2886;49.722;8.612;2023-06-24T09:35:16;5.30;;;4.13;;
5722;SDS011;2886;49.722;8.612;2023-06-24T09:37:48;6.00;;;4.10;;
5722;SDS011;2886;49.722;8.612;2023-06-24T09:40:14;6.10;;;4.50;;
5722;SDS011;2886;49.722;8.612;2023-06-24T09:42:47;4.30;;;3.87;;
5722;SDS011;2886;49.722;8.612;2023-06-24T09:45:27;7.63;;;3.83;;
5722;SDS011;2886;49.722;8.612;2023-06-24T09:47:54;5.50;;;3.80;;
5722;SDS011;2886;49.722;8.612;2023-06-24T09:50:21;9.50;;;3.43;;
5722;SDS011;2886;49.722;8.612;2023-06-24T09:52:47;4.70;;;3.23;;
5722;SDS011;2886;49.722;8.612;2023-06-24T09:55:14;4.10;;;3.57;;
5722;SDS011;2886;49.722;8.612;2023-06-24T09:57:44;5.97;;;4.33;;
5722;SDS011;2886;49.722;8.612;2023-06-24T10:00:11;5.60;;;3.67;;
5722;SDS011;2886;49.722;8.612;2023-06-24T10:02:40;7.07;;;3.53;;
5722;SDS011;2886;49.722;8.612;2023-06-24T10:05:08;4.20;;;3.70;;
5722;SDS011;2886;49.722;8.612;2023-06-24T10:07:34;4.53;;;3.80;;
5722;SDS011;2886;49.722;8.612;2023-06-24T10:10:02;8.00;;;3.90;;
5722;SDS011;2886;49.722;8.612;2023-06-24T10:12:28;6.43;;;3.80;;
5722;SDS011;2886;49.722;8.612;2023-06-24T10:14:54;5.17;;;4.10;;
5722;SDS011;2886;49.722;8.612;2023-06-24T10:17:20;4.03;;;3.60;;
5722;SDS011;2886;49.722;8.612;2023-06-24T10:19:46;4.40;;;3.50;;
5722;SDS011;2886;49.722;8.612;2023-06-24T10:22:12;4.60;;;3.50;;
5722;SDS011;2886;49.722;8.612;2023-06-24T10:24:38;6.37;;;4.10;;
5722;SDS011;2886;49.722;8.612;2023-06-24T10:29:41;4.10;;;3.63;;
5722;SDS011;2886;49.722;8.612;2023-06-24T10:32:10;4.87;;;3.80;;
5722;SDS011;2886;49.722;8.612;2023-06-24T10:44:53;4.43;;;3.47;;
5722;SDS011;2886;49.722;8.612;2023-06-24T10:47:40;5.37;;;3.37;;
5722;SDS011;2886;49.722;8.612;2023-06-24T10:50:06;4.70;;;3.57;;
5722;SDS011;2886;49.722;8.612;2023-06-24T10:52:35;3.43;;;3.13;;
5722;SDS011;2886;49.722;8.612;2023-06-24T10:55:06;7.83;;;3.40;;
5722;SDS011;2886;49.722;8.612;2023-06-24T10:57:33;3.43;;;3.13;;
5722;SDS011;2886;49.722;8.612;2023-06-24T10:59:59;5.30;;;3.60;;
5722;SDS011;2886;49.722;8.612;2023-06-24T11:02:28;4.90;;;3.80;;
5722;SDS011;2886;49.722;8.612;2023-06-24T11:04:55;4.90;;;3.67;;
5722;SDS011;2886;49.722;8.612;2023-06-24T11:07:23;3.80;;;3.40;;
5722;SDS011;2886;49.722;8.612;2023-06-24T11:09:50;3.97;;;3.57;;
5722;SDS011;2886;49.722;8.612;2023-06-24T11:12:17;7.20;;;4.07;;
5722;SDS011;2886;49.722;8.612;2023-06-24T11:14:43;4.90;;;3.60;;
5722;SDS011;2886;49.722;8.612;2023-06-24T11:17:09;3.93;;;3.57;;
5722;SDS011;2886;49.722;8.612;2023-06-24T11:19:36;4.63;;;3.83;;
5722;SDS011;2886;49.722;8.612;2023-06-24T11:22:04;4.60;;;3.47;;
5722;SDS011;2886;49.722;8.612;2023-06-24T11:24:31;5.03;;;3.67;;
5722;SDS011;2886;49.722;8.612;2023-06-24T11:26:57;3.80;;;3.40;;
5722;SDS011;2886;49.722;8.612;2023-06-24T11:29:23;5.30;;;3.97;;
5722;SDS011;2886;49.722;8.612;2023-06-24T11:31:49;6.10;;;3.80;;
5722;SDS011;2886;49.722;8.612;2023-06-24T11:34:15;3.80;;;3.50;;
5722;SDS011;2886;49.722;8.612;2023-06-24T11:36:41;4.07;;;3.63;;
5722;SDS011;2886;49.722;8.612;2023-06-24T11:39:07;4.67;;;3.30;;
5722;SDS011;2886;49.722;8.612;2023-06-24T11:41:33;3.40;;;3.10;;
5722;SDS011;2886;49.722;8.612;2023-06-24T11:43:58;4.07;;;3.70;;
5722;SDS011;2886;49.722;8.612;2023-06-24T11:46:25;5.53;;;4.27;;
5722;SDS011;2886;49.722;8.612;2023-06-24T11:48:51;5.47;;;3.90;;
5722;SDS011;2886;49.722;8.612;2023-06-24T11:51:17;5.10;;;3.63;;
5722;SDS011;2886;49.722;8.612;2023-06-24T11:53:44;4.90;;;4.20;;
5722;SDS011;2886;49.722;8.612;2023-06-24T11:56:12;5.43;;;4.10;;
5722;SDS011;2886;49.722;8.612;2023-06-24T11:58:38;4.00;;;3.60;;
5722;SDS011;2886;49.722;8.612;2023-06-24T12:01:07;5.90;;;3.67;;
5722;SDS011;2886;49.722;8.612;2023-06-24T12:03:33;4.40;;;3.50;;
5722;SDS011;2886;49.722;8.612;2023-06-24T12:05:59;4.83;;;3.67;;
5722;SDS011;2886;49.722;8.612;2023-06-24T12:08:25;5.00;;;4.00;;
5722;SDS011;2886;49.722;8.612;2023-06-24T12:10:51;6.87;;;4.17;;
5722;SDS011;2886;49.722;8.612;2023-06-24T12:13:17;5.23;;;4.10;;
5722;SDS011;2886;49.722;8.612;2023-06-24T12:15:43;4.70;;;4.20;;
5722;SDS011;2886;49.722;8.612;2023-06-24T12:18:09;6.43;;;3.83;;
5722;SDS011;2886;49.722;8.612;2023-06-24T12:20:35;4.70;;;3.40;;
5722;SDS011;2886;49.722;8.612;2023-06-24T12:23:02;3.90;;;3.53;;
5722;SDS011;2886;49.722;8.612;2023-06-24T12:25:30;4.23;;;3.83;;
5722;SDS011;2886;49.722;8.612;2023-06-24T12:27:56;6.63;;;4.20;;
5722;SDS011;2886;49.722;8.612;2023-06-24T12:30:21;6.40;;;4.30;;
5722;SDS011;2886;49.722;8.612;2023-06-24T12:32:49;4.87;;;3.97;;
5722;SDS011;2886;49.722;8.612;2023-06-24T12:35:16;4.00;;;3.60;;
5722;SDS011;2886;49.722;8.612;2023-06-24T12:37:41;4.97;;;3.63;;
5722;SDS011;2886;49.722;8.612;2023-06-24T12:40:07;4.27;;;3.87;;
5722;SDS011;2886;49.722;8.612;2023-06-24T12:42:33;5.80;;;4.03;;
5722;SDS011;2886;49.722;8.612;2023-06-24T12:44:59;4.93;;;3.73;;
5722;SDS011;2886;49.722;8.612;2023-06-24T12:47:25;5.50;;;3.47;;
5722;SDS011;2886;49.722;8.612;2023-06-24T12:49:51;3.77;;;3.40;;
5722;SDS011;2886;49.722;8.612;2023-06-24T12:52:17;7.13;;;4.47;;
5722;SDS011;2886;49.722;8.612;2023-06-24T12:54:43;5.10;;;3.90;;
5722;SDS011;2886;49.722;8.612;2023-06-24T12:57:09;7.17;;;4.00;;
5722;SDS011;2886;49.722;8.612;2023-06-24T12:59:35;4.03;;;3.63;;
5722;SDS011;2886;49.722;8.612;2023-06-24T13:02:01;4.57;;;3.97;;
5722;SDS011;2886;49.722;8.612;2023-06-24T13:04:27;5.97;;;4.00;;
5722;SDS011;2886;49.722;8.612;2023-06-24T13:06:52;4.23;;;3.60;;
5722;SDS011;2886;49.722;8.612;2023-06-24T13:09:18;5.10;;;3.90;;
5722;SDS011;2886;49.722;8.612;2023-06-24T13:11:44;5.37;;;3.63;;
5722;SDS011;2886;49.722;8.612;2023-06-24T13:14:11;4.90;;;3.90;;
5722;SDS011;2886;49.722;8.612;2023-06-24T13:16:37;4.33;;;3.93;;
5722;SDS011;2886;49.722;8.612;2023-06-24T13:19:03;5.50;;;3.57;;
5722;SDS011;2886;49.722;8.612;2023-06-24T13:21:28;3.83;;;3.43;;
5722;SDS011;2886;49.722;8.612;2023-06-24T13:23:54;7.83;;;3.83;;
5722;SDS011;2886;49.722;8.612;2023-06-24T13:26:20;4.73;;;3.77;;
5722;SDS011;2886;49.722;8.612;2023-06-24T13:28:46;3.80;;;3.50;;
5722;SDS011;2886;49.722;8.612;2023-06-24T13:31:11;4.40;;;3.40;;
5722;SDS011;2886;49.722;8.612;2023-06-24T13:33:37;5.93;;;3.80;;
5722;SDS011;2886;49.722;8.612;2023-06-24T13:36:03;6.33;;;4.30;;
5722;SDS011;2886;49.722;8.612;2023-06-24T13:38:31;3.73;;;3.27;;
5722;SDS011;2886;49.722;8.612;2023-06-24T13:40:57;3.80;;;3.43;;
5722;SDS011;2886;49.722;8.612;2023-06-24T13:43:23;4.10;;;3.03;;
5722;SDS011;2886;49.722;8.612;2023-06-24T13:45:48;5.70;;;3.70;;
5722;SDS011;2886;49.722;8.612;2023-06-24T13:48:14;4.07;;;3.63;;
5722;SDS011;2886;49.722;8.612;2023-06-24T13:50:39;10.00;;;3.83;;
5722;SDS011;2886;49.722;8.612;2023-06-24T13:53:05;4.00;;;3.60;;
5722;SDS011;2886;49.722;8.612;2023-06-24T13:55:31;4.77;;;4.00;;
5722;SDS011;2886;49.722;8.612;2023-06-24T13:57:57;3.87;;;3.47;;
5722;SDS011;2886;49.722;8.612;2023-06-24T14:00:22;4.37;;;3.63;;
5722;SDS011;2886;49.722;8.612;2023-06-24T14:02:48;5.37;;;3.57;;
5722;SDS011;2886;49.722;8.612;2023-06-24T14:05:14;3.93;;;3.63;;
5722;SDS011;2886;49.722;8.612;2023-06-24T14:07:39;4.67;;;3.70;;
5722;SDS011;2886;49.722;8.612;2023-06-24T14:10:05;9.93;;;3.50;;
5722;SDS011;2886;49.722;8.612;2023-06-24T14:12:31;5.93;;;3.90;;
5722;SDS011;2886;49.722;8.612;2023-06-24T14:14:57;3.70;;;3.30;;
5722;SDS011;2886;49.722;8.612;2023-06-24T14:17:22;9.03;;;4.00;;
5722;SDS011;2886;49.722;8.612;2023-06-24T14:19:49;7.40;;;3.80;;
5722;SDS011;2886;49.722;8.612;2023-06-24T14:22:15;4.67;;;4.03;;
5722;SDS011;2886;49.722;8.612;2023-06-24T14:24:42;5.50;;;4.00;;
5722;SDS011;2886;49.722;8.612;2023-06-24T14:27:08;4.57;;;3.77;;
5722;SDS011;2886;49.722;8.612;2023-06-24T14:29:33;8.50;;;4.20;;
5722;SDS011;2886;49.722;8.612;2023-06-24T14:31:59;5.20;;;3.50;;
5722;SDS011;2886;49.722;8.612;2023-06-24T14:34:24;4.53;;;3.90;;
5722;SDS011;2886;49.722;8.612;2023-06-24T14:36:54;4.20;;;3.80;;
5722;SDS011;2886;49.722;8.612;2023-06-24T14:39:20;3.90;;;3.30;;
5722;SDS011;2886;49.722;8.612;2023-06-24T14:41:46;6.37;;;4.00;;
5722;SDS011;2886;49.722;8.612;2023-06-24T14:44:11;5.50;;;3.80;;
5722;SDS011;2886;49.722;8.612;2023-06-24T14:46:37;4.53;;;3.83;;
5722;SDS011;2886;49.722;8.612;2023-06-24T14:49:02;6.07;;;4.00;;
5722;SDS011;2886;49.722;8.612;2023-06-24T14:51:28;4.63;;;3.30;;
5722;SDS011;2886;49.722;8.612;2023-06-24T14:53:54;4.40;;;3.50;;
5722;SDS011;2886;49.722;8.612;2023-06-24T14:56:19;4.47;;;3.70;;
5722;SDS011;2886;49.722;8.612;2023-06-24T14:58:45;3.83;;;3.43;;
5722;SDS011;2886;49.722;8.612;2023-06-24T15:01:10;5.27;;;3.97;;
5722;SDS011;2886;49.722;8.612;2023-06-24T15:03:36;5.70;;;3.87;;
5722;SDS011;2886;49.722;8.612;2023-06-24T15:06:01;5.13;;;3.87;;
5722;SDS011;2886;49.722;8.612;2023-06-24T15:08:27;5.37;;;3.87;;
5722;SDS011;2886;49.722;8.612;2023-06-24T15:10:52;4.73;;;3.83;;
5722;SDS011;2886;49.722;8.612;2023-06-24T15:13:18;9.40;;;3.40;;
5722;SDS011;2886;49.722;8.612;2023-06-24T15:15:44;5.70;;;3.70;;
5722;SDS011;2886;49.722;8.612;2023-06-24T15:18:10;4.63;;;4.10;;
5722;SDS011;2886;49.722;8.612;2023-06-24T15:20:35;6.90;;;3.90;;
5722;SDS011;2886;49.722;8.612;2023-06-24T15:23:01;4.00;;;3.60;;
5722;SDS011;2886;49.722;8.612;2023-06-24T15:25:27;4.17;;;3.30;;
5722;SDS011;2886;49.722;8.612;2023-06-24T15:27:53;3.37;;;3.07;;
5722;SDS011;2886;49.722;8.612;2023-06-24T15:30:18;5.17;;;3.50;;
5722;SDS011;2886;49.722;8.612;2023-06-24T15:32:44;7.07;;;4.10;;
5722;SDS011;2886;49.722;8.612;2023-06-24T15:35:11;4.93;;;3.70;;
5722;SDS011;2886;49.722;8.612;2023-06-24T15:37:37;4.13;;;3.10;;
5722;SDS011;2886;49.722;8.612;2023-06-24T15:40:03;5.00;;;3.23;;
5722;SDS011;2886;49.722;8.612;2023-06-24T15:42:29;5.33;;;3.83;;